Thomas, Louisiana
Current Conditions -  °F | °C
As of 1:15 AM on Wednesday 22 Oct 2014 (Local Time) from KBXA Reporting Station
NA  
Wind Chill: 55°   Ceiling: NA
Heat Index: 55°   Visibility: 10mi
Dew Point: 52°   Wind: 0mph
Humidity: 91%   Direction: NA
Pressure: 30.05"   Gusts: NA
Location:  30.8503°N, 90.0561°W
Report Text: KBXA 220615Z AUTO 00000KT 10SM 13/11 A3005 RMK AO2 T01260111
Loading
Personal Weather Stations






























Interactive Weather Map
Tropical Storm Tracking
New forecast layout! Learn more

10-Day Weather Forecast

Advertisements
Track Severe Weather on mobile